sensor_id;sensor_type;location;lat;lon;timestamp;pressure;altitude;pressure_sealevel;temperature;humidity
55466;BME280;41329;41.594;23.810;2023-03-23T00:00:45;95161.06;;;8.41;59.00
55466;BME280;41329;41.594;23.810;2023-03-23T00:03:10;95157.06;;;8.38;59.05
55466;BME280;41329;41.594;23.810;2023-03-23T00:05:38;95167.28;;;8.38;59.06
55466;BME280;41329;41.594;23.810;2023-03-23T00:08:06;95164.47;;;8.34;59.48
55466;BME280;41329;41.594;23.810;2023-03-23T00:10:35;95161.19;;;8.29;59.60
55466;BME280;41329;41.594;23.810;2023-03-23T00:13:01;95154.78;;;8.25;60.45
55466;BME280;41329;41.594;23.810;2023-03-23T00:15:29;95155.50;;;8.22;60.25
55466;BME280;41329;41.594;23.810;2023-03-23T00:17:59;95149.09;;;8.18;60.22
55466;BME280;41329;41.594;23.810;2023-03-23T00:20:30;95154.72;;;8.21;60.02
55466;BME280;41329;41.594;23.810;2023-03-23T00:22:55;95135.09;;;8.07;60.04
55466;BME280;41329;41.594;23.810;2023-03-23T00:25:25;95151.06;;;8.17;60.29
55466;BME280;41329;41.594;23.810;2023-03-23T00:27:51;95150.53;;;8.12;60.55
55466;BME280;41329;41.594;23.810;2023-03-23T00:30:16;95164.16;;;8.05;60.54
55466;BME280;41329;41.594;23.810;2023-03-23T00:32:43;95163.22;;;7.97;60.69
55466;BME280;41329;41.594;23.810;2023-03-23T00:35:08;95156.88;;;7.97;60.92
55466;BME280;41329;41.594;23.810;2023-03-23T00:37:34;95164.78;;;7.98;61.12
55466;BME280;41329;41.594;23.810;2023-03-23T00:40:02;95143.22;;;7.85;61.61
55466;BME280;41329;41.594;23.810;2023-03-23T00:42:31;95161.16;;;7.94;62.28
55466;BME280;41329;41.594;23.810;2023-03-23T00:45:02;95160.91;;;7.84;62.26
55466;BME280;41329;41.594;23.810;2023-03-23T00:47:29;95168.81;;;7.85;62.29
55466;BME280;41329;41.594;23.810;2023-03-23T00:49:55;95169.25;;;7.87;61.71
55466;BME280;41329;41.594;23.810;2023-03-23T00:52:21;95162.16;;;7.86;61.54
55466;BME280;41329;41.594;23.810;2023-03-23T00:54:47;95149.09;;;7.83;61.75
55466;BME280;41329;41.594;23.810;2023-03-23T00:57:12;95130.72;;;7.72;61.92
55466;BME280;41329;41.594;23.810;2023-03-23T00:59:38;95110.69;;;7.56;62.19
55466;BME280;41329;41.594;23.810;2023-03-23T01:02:03;95152.72;;;7.87;62.00
55466;BME280;41329;41.594;23.810;2023-03-23T01:04:29;95149.97;;;7.87;61.93
55466;BME280;41329;41.594;23.810;2023-03-23T01:06:57;95138.72;;;7.77;61.60
55466;BME280;41329;41.594;23.810;2023-03-23T01:09:22;95145.91;;;7.81;61.69
55466;BME280;41329;41.594;23.810;2023-03-23T01:11:49;95154.88;;;7.78;61.82
55466;BME280;41329;41.594;23.810;2023-03-23T01:14:17;95151.78;;;7.80;61.81
55466;BME280;41329;41.594;23.810;2023-03-23T01:16:43;95133.34;;;7.65;61.50
55466;BME280;41329;41.594;23.810;2023-03-23T01:19:09;95158.63;;;7.70;61.63
55466;BME280;41329;41.594;23.810;2023-03-23T01:21:35;95148.25;;;7.48;61.97
55466;BME280;41329;41.594;23.810;2023-03-23T01:24:01;95153.59;;;7.57;61.98
55466;BME280;41329;41.594;23.810;2023-03-23T01:26:28;95158.09;;;7.49;61.72
55466;BME280;41329;41.594;23.810;2023-03-23T01:28:54;95152.34;;;7.39;61.68
55466;BME280;41329;41.594;23.810;2023-03-23T01:31:23;95146.34;;;7.33;61.42
55466;BME280;41329;41.594;23.810;2023-03-23T01:33:50;95132.66;;;7.21;61.54
55466;BME280;41329;41.594;23.810;2023-03-23T01:36:19;95158.94;;;7.34;61.73
55466;BME280;41329;41.594;23.810;2023-03-23T01:38:48;95160.44;;;7.32;61.85
55466;BME280;41329;41.594;23.810;2023-03-23T01:41:16;95162.72;;;7.30;62.17
55466;BME280;41329;41.594;23.810;2023-03-23T01:44:08;95171.00;;;7.30;62.42
55466;BME280;41329;41.594;23.810;2023-03-23T01:46:52;95155.44;;;7.22;63.02
55466;BME280;41329;41.594;23.810;2023-03-23T01:49:24;95159.56;;;7.28;63.38
55466;BME280;41329;41.594;23.810;2023-03-23T01:51:54;95158.75;;;7.27;63.49
55466;BME280;41329;41.594;23.810;2023-03-23T01:54:23;95168.16;;;7.26;63.61
55466;BME280;41329;41.594;23.810;2023-03-23T01:56:54;95165.06;;;7.28;63.09
55466;BME280;41329;41.594;23.810;2023-03-23T01:59:21;95166.28;;;7.15;63.02
55466;BME280;41329;41.594;23.810;2023-03-23T02:01:47;95133.53;;;6.94;62.51
55466;BME280;41329;41.594;23.810;2023-03-23T02:04:14;95162.19;;;7.09;62.77
55466;BME280;41329;41.594;23.810;2023-03-23T02:06:41;95130.94;;;6.86;62.95
55466;BME280;41329;41.594;23.810;2023-03-23T02:09:08;95150.03;;;6.94;62.77
55466;BME280;41329;41.594;23.810;2023-03-23T02:11:33;95166.53;;;6.94;63.05
55466;BME280;41329;41.594;23.810;2023-03-23T02:13:59;95162.53;;;6.92;63.20
55466;BME280;41329;41.594;23.810;2023-03-23T02:24:28;95114.16;;;6.60;64.15
55466;BME280;41329;41.594;23.810;2023-03-23T02:27:12;95159.97;;;6.83;64.27
55466;BME280;41329;41.594;23.810;2023-03-23T02:32:38;95152.41;;;6.80;64.25
55466;BME280;41329;41.594;23.810;2023-03-23T02:35:12;95146.44;;;6.78;64.23
55466;BME280;41329;41.594;23.810;2023-03-23T02:37:46;95158.78;;;6.84;64.47
55466;BME280;41329;41.594;23.810;2023-03-23T02:40:18;95179.13;;;6.95;64.05
55466;BME280;41329;41.594;23.810;2023-03-23T02:42:48;95174.34;;;6.92;64.27
55466;BME280;41329;41.594;23.810;2023-03-23T02:45:16;95174.00;;;6.94;64.36
55466;BME280;41329;41.594;23.810;2023-03-23T02:47:43;95165.81;;;6.82;63.91
55466;BME280;41329;41.594;23.810;2023-03-23T02:50:13;95176.88;;;6.85;63.55
55466;BME280;41329;41.594;23.810;2023-03-23T02:52:41;95129.75;;;6.56;63.87
55466;BME280;41329;41.594;23.810;2023-03-23T02:55:09;95179.63;;;6.85;63.55
55466;BME280;41329;41.594;23.810;2023-03-23T02:57:37;95183.53;;;6.84;63.65
55466;BME280;41329;41.594;23.810;2023-03-23T03:00:07;95180.78;;;6.84;63.91
55466;BME280;41329;41.594;23.810;2023-03-23T03:02:44;95192.06;;;6.79;64.18
55466;BME280;41329;41.594;23.810;2023-03-23T03:08:12;95188.84;;;6.77;64.74
55466;BME280;41329;41.594;23.810;2023-03-23T03:11:01;95184.03;;;6.74;64.40
55466;BME280;41329;41.594;23.810;2023-03-23T03:13:52;95168.16;;;6.68;64.15
55466;BME280;41329;41.594;23.810;2023-03-23T03:19:00;95191.22;;;6.63;64.42
55466;BME280;41329;41.594;23.810;2023-03-23T03:21:30;95172.81;;;6.52;64.71
55466;BME280;41329;41.594;23.810;2023-03-23T03:24:00;95155.91;;;6.37;64.90
55466;BME280;41329;41.594;23.810;2023-03-23T03:26:29;95173.13;;;6.34;65.19
55466;BME280;41329;41.594;23.810;2023-03-23T03:28:56;95199.81;;;6.22;64.62
55466;BME280;41329;41.594;23.810;2023-03-23T03:31:26;95183.59;;;6.05;64.48
55466;BME280;41329;41.594;23.810;2023-03-23T03:33:53;95193.00;;;6.04;64.05
55466;BME280;41329;41.594;23.810;2023-03-23T03:36:21;95191.75;;;6.01;64.12
55466;BME280;41329;41.594;23.810;2023-03-23T03:38:50;95193.56;;;5.97;64.32
55466;BME280;41329;41.594;23.810;2023-03-23T03:41:18;95198.94;;;5.94;64.39
55466;BME280;41329;41.594;23.810;2023-03-23T03:43:44;95194.03;;;5.87;64.32
55466;BME280;41329;41.594;23.810;2023-03-23T03:46:09;95186.59;;;5.76;64.44
55466;BME280;41329;41.594;23.810;2023-03-23T03:48:35;95187.75;;;5.75;64.30
55466;BME280;41329;41.594;23.810;2023-03-23T03:51:00;95190.81;;;5.73;64.06
55466;BME280;41329;41.594;23.810;2023-03-23T03:53:27;95189.09;;;5.69;63.87
55466;BME280;41329;41.594;23.810;2023-03-23T03:55:53;95198.16;;;5.69;64.36
55466;BME280;41329;41.594;23.810;2023-03-23T03:58:22;95190.25;;;5.68;64.59
55466;BME280;41329;41.594;23.810;2023-03-23T04:00:48;95189.09;;;5.69;64.83
55466;BME280;41329;41.594;23.810;2023-03-23T04:03:15;95187.50;;;5.68;65.04
55466;BME280;41329;41.594;23.810;2023-03-23T04:05:42;95206.84;;;5.71;65.33
55466;BME280;41329;41.594;23.810;2023-03-23T04:08:11;95194.25;;;5.70;65.22
55466;BME280;41329;41.594;23.810;2023-03-23T04:10:37;95171.97;;;5.60;64.89
55466;BME280;41329;41.594;23.810;2023-03-23T04:13:02;95187.63;;;5.71;64.82
55466;BME280;41329;41.594;23.810;2023-03-23T04:15:30;95188.66;;;5.67;64.96
55466;BME280;41329;41.594;23.810;2023-03-23T04:17:56;95191.97;;;5.72;64.99
55466;BME280;41329;41.594;23.810;2023-03-23T04:20:22;95186.94;;;5.62;65.23
55466;BME280;41329;41.594;23.810;2023-03-23T04:22:48;95194.38;;;5.62;65.64
55466;BME280;41329;41.594;23.810;2023-03-23T04:25:15;95182.16;;;5.59;65.76
55466;BME280;41329;41.594;23.810;2023-03-23T04:27:43;95199.28;;;5.56;66.12
55466;BME280;41329;41.594;23.810;2023-03-23T04:30:10;95190.38;;;5.59;66.20
55466;BME280;41329;41.594;23.810;2023-03-23T04:32:37;95200.22;;;5.60;65.96
55466;BME280;41329;41.594;23.810;2023-03-23T04:35:06;95192.44;;;5.50;66.13
55466;BME280;41329;41.594;23.810;2023-03-23T04:37:32;95202.16;;;5.60;66.19
55466;BME280;41329;41.594;23.810;2023-03-23T04:39:57;95201.81;;;5.61;66.35
55466;BME280;41329;41.594;23.810;2023-03-23T04:42:30;95204.69;;;5.65;66.50
55466;BME280;41329;41.594;23.810;2023-03-23T04:44:59;95206.72;;;5.68;66.52
55466;BME280;41329;41.594;23.810;2023-03-23T04:47:26;95205.22;;;5.70;66.45
55466;BME280;41329;41.594;23.810;2023-03-23T04:49:56;95193.56;;;5.61;66.59
55466;BME280;41329;41.594;23.810;2023-03-23T04:52:21;95208.31;;;5.69;66.83
55466;BME280;41329;41.594;23.810;2023-03-23T04:54:47;95217.94;;;5.75;66.86
55466;BME280;41329;41.594;23.810;2023-03-23T04:57:13;95208.53;;;5.76;66.76
55466;BME280;41329;41.594;23.810;2023-03-23T04:59:40;95208.66;;;5.79;66.88
55466;BME280;41329;41.594;23.810;2023-03-23T05:02:06;95214.31;;;5.83;66.87
55466;BME280;41329;41.594;23.810;2023-03-23T05:04:31;95226.19;;;5.87;66.35
55466;BME280;41329;41.594;23.810;2023-03-23T05:06:58;95219.91;;;5.86;66.09
55466;BME280;41329;41.594;23.810;2023-03-23T05:09:24;95222.75;;;5.90;66.19
55466;BME280;41329;41.594;23.810;2023-03-23T05:11:49;95223.69;;;5.82;66.11
55466;BME280;41329;41.594;23.810;2023-03-23T05:14:15;95215.63;;;5.77;66.57
55466;BME280;41329;41.594;23.810;2023-03-23T05:16:40;95227.34;;;5.86;66.74
55466;BME280;41329;41.594;23.810;2023-03-23T05:19:07;95236.47;;;5.90;67.06
55466;BME280;41329;41.594;23.810;2023-03-23T05:21:33;95242.44;;;5.92;66.77
55466;BME280;41329;41.594;23.810;2023-03-23T05:23:59;95237.28;;;5.90;66.87
55466;BME280;41329;41.594;23.810;2023-03-23T05:26:26;95242.09;;;5.93;66.90
55466;BME280;41329;41.594;23.810;2023-03-23T05:28:54;95249.41;;;6.01;66.74
55466;BME280;41329;41.594;23.810;2023-03-23T05:31:21;95234.53;;;6.02;66.92
55466;BME280;41329;41.594;23.810;2023-03-23T05:33:47;95220.56;;;5.95;66.65
55466;BME280;41329;41.594;23.810;2023-03-23T05:36:12;95239.53;;;6.12;66.85
55466;BME280;41329;41.594;23.810;2023-03-23T05:38:41;95207.56;;;5.92;66.78
55466;BME280;41329;41.594;23.810;2023-03-23T05:41:15;95252.34;;;6.20;67.24
55466;BME280;41329;41.594;23.810;2023-03-23T05:43:40;95250.16;;;6.26;67.30
55466;BME280;41329;41.594;23.810;2023-03-23T05:46:06;95248.78;;;6.32;67.38
55466;BME280;41329;41.594;23.810;2023-03-23T05:48:34;95225.91;;;6.28;67.85
55466;BME280;41329;41.594;23.810;2023-03-23T05:51:00;95236.41;;;6.38;67.72
55466;BME280;41329;41.594;23.810;2023-03-23T05:53:26;95251.03;;;6.54;67.49
55466;BME280;41329;41.594;23.810;2023-03-23T05:55:51;95249.63;;;6.60;67.44
55466;BME280;41329;41.594;23.810;2023-03-23T05:58:18;95257.97;;;6.63;67.67
55466;BME280;41329;41.594;23.810;2023-03-23T06:00:43;95251.31;;;6.37;68.19
55466;BME280;41329;41.594;23.810;2023-03-23T06:03:11;95266.78;;;6.17;69.30
55466;BME280;41329;41.594;23.810;2023-03-23T06:05:42;95274.81;;;5.98;70.93
55466;BME280;41329;41.594;23.810;2023-03-23T06:08:09;95271.25;;;5.98;70.87
55466;BME280;41329;41.594;23.810;2023-03-23T06:10:35;95277.50;;;5.74;72.10
55466;BME280;41329;41.594;23.810;2023-03-23T06:13:01;95268.56;;;5.53;72.95
55466;BME280;41329;41.594;23.810;2023-03-23T06:15:27;95271.31;;;5.53;73.76
55466;BME280;41329;41.594;23.810;2023-03-23T06:18:01;95262.16;;;5.49;74.05
55466;BME280;41329;41.594;23.810;2023-03-23T06:20:26;95260.13;;;5.46;74.07
55466;BME280;41329;41.594;23.810;2023-03-23T06:22:52;95263.09;;;5.77;73.79
55466;BME280;41329;41.594;23.810;2023-03-23T06:25:18;95272.97;;;5.90;73.72
55466;BME280;41329;41.594;23.810;2023-03-23T06:27:43;95275.03;;;5.93;74.02
55466;BME280;41329;41.594;23.810;2023-03-23T06:30:11;95275.59;;;6.11;74.14
55466;BME280;41329;41.594;23.810;2023-03-23T06:32:38;95282.56;;;6.32;73.93
55466;BME280;41329;41.594;23.810;2023-03-23T06:35:04;95268.47;;;6.34;74.10
55466;BME280;41329;41.594;23.810;2023-03-23T06:37:32;95279.09;;;6.47;73.43
55466;BME280;41329;41.594;23.810;2023-03-23T06:39:58;95288.19;;;6.63;73.30
55466;BME280;41329;41.594;23.810;2023-03-23T06:42:23;95286.13;;;6.73;73.52
55466;BME280;41329;41.594;23.810;2023-03-23T06:44:50;95292.91;;;6.63;73.87
55466;BME280;41329;41.594;23.810;2023-03-23T06:47:16;95278.31;;;6.75;73.53
55466;BME280;41329;41.594;23.810;2023-03-23T06:49:42;95287.94;;;6.81;73.11
55466;BME280;41329;41.594;23.810;2023-03-23T06:52:07;95290.88;;;6.88;73.25
55466;BME280;41329;41.594;23.810;2023-03-23T06:54:33;95286.16;;;7.00;73.55
55466;BME280;41329;41.594;23.810;2023-03-23T06:56:58;95286.63;;;7.18;73.58
55466;BME280;41329;41.594;23.810;2023-03-23T06:59:24;95276.34;;;7.15;72.73
55466;BME280;41329;41.594;23.810;2023-03-23T07:01:50;95286.28;;;7.19;72.89
55466;BME280;41329;41.594;23.810;2023-03-23T07:04:15;95291.28;;;7.29;72.31
55466;BME280;41329;41.594;23.810;2023-03-23T07:06:41;95298.16;;;7.66;73.30
55466;BME280;41329;41.594;23.810;2023-03-23T07:09:07;95275.44;;;7.69;71.28
55466;BME280;41329;41.594;23.810;2023-03-23T07:11:32;95292.41;;;8.02;71.25
55466;BME280;41329;41.594;23.810;2023-03-23T07:13:57;95271.59;;;8.05;70.54
55466;BME280;41329;41.594;23.810;2023-03-23T07:16:23;95289.75;;;8.37;70.21
55466;BME280;41329;41.594;23.810;2023-03-23T07:18:48;95280.78;;;8.59;69.44
55466;BME280;41329;41.594;23.810;2023-03-23T07:21:14;95280.22;;;8.69;67.78
55466;BME280;41329;41.594;23.810;2023-03-23T07:23:39;95282.66;;;8.89;68.45
55466;BME280;41329;41.594;23.810;2023-03-23T07:26:05;95290.25;;;9.15;68.24
55466;BME280;41329;41.594;23.810;2023-03-23T07:28:31;95281.84;;;9.27;66.77
55466;BME280;41329;41.594;23.810;2023-03-23T07:30:57;95277.03;;;9.43;65.98
55466;BME280;41329;41.594;23.810;2023-03-23T07:33:22;95279.75;;;9.62;65.18
55466;BME280;41329;41.594;23.810;2023-03-23T07:35:48;95265.66;;;9.67;64.78
55466;BME280;41329;41.594;23.810;2023-03-23T07:38:14;95276.75;;;9.93;63.93
55466;BME280;41329;41.594;23.810;2023-03-23T07:40:40;95276.72;;;10.12;64.70
55466;BME280;41329;41.594;23.810;2023-03-23T07:43:05;95288.13;;;10.33;64.07
55466;BME280;41329;41.594;23.810;2023-03-23T07:45:32;95277.38;;;10.54;64.73
55466;BME280;41329;41.594;23.810;2023-03-23T07:47:59;95279.75;;;10.81;64.37
55466;BME280;41329;41.594;23.810;2023-03-23T07:50:25;95280.34;;;10.94;60.78
55466;BME280;41329;41.594;23.810;2023-03-23T07:52:54;95281.31;;;11.08;61.24
55466;BME280;41329;41.594;23.810;2023-03-23T07:55:20;95280.66;;;11.18;60.05
55466;BME280;41329;41.594;23.810;2023-03-23T07:57:47;95223.06;;;10.98;59.81
55466;BME280;41329;41.594;23.810;2023-03-23T08:00:17;95268.97;;;11.32;59.20
55466;BME280;41329;41.594;23.810;2023-03-23T08:02:53;95236.41;;;11.22;59.10
55466;BME280;41329;41.594;23.810;2023-03-23T08:05:20;95275.72;;;11.67;59.62
55466;BME280;41329;41.594;23.810;2023-03-23T08:07:48;95267.88;;;11.73;58.44
55466;BME280;41329;41.594;23.810;2023-03-23T08:10:15;95257.50;;;11.66;57.80
55466;BME280;41329;41.594;23.810;2023-03-23T08:12:43;95273.09;;;11.81;58.92
55466;BME280;41329;41.594;23.810;2023-03-23T08:15:11;95267.59;;;11.85;56.08
55466;BME280;41329;41.594;23.810;2023-03-23T08:17:43;95250.63;;;11.90;56.05
55466;BME280;41329;41.594;23.810;2023-03-23T08:20:10;95253.59;;;12.11;56.39
55466;BME280;41329;41.594;23.810;2023-03-23T08:22:45;95246.25;;;12.36;56.50
55466;BME280;41329;41.594;23.810;2023-03-23T08:25:14;95266.59;;;12.51;54.85
55466;BME280;41329;41.594;23.810;2023-03-23T08:27:39;95243.13;;;12.41;56.38
55466;BME280;41329;41.594;23.810;2023-03-23T08:30:11;95249.13;;;12.50;54.38
55466;BME280;41329;41.594;23.810;2023-03-23T08:32:37;95258.03;;;12.73;56.34
55466;BME280;41329;41.594;23.810;2023-03-23T08:35:03;95242.25;;;12.88;56.92
55466;BME280;41329;41.594;23.810;2023-03-23T08:37:32;95243.06;;;12.92;54.35
55466;BME280;41329;41.594;23.810;2023-03-23T08:39:57;95254.31;;;13.13;56.52
55466;BME280;41329;41.594;23.810;2023-03-23T08:42:24;95249.25;;;13.39;54.79
55466;BME280;41329;41.594;23.810;2023-03-23T08:44:51;95250.88;;;13.58;54.26
55466;BME280;41329;41.594;23.810;2023-03-23T08:47:16;95254.09;;;13.67;54.20
55466;BME280;41329;41.594;23.810;2023-03-23T08:49:42;95242.22;;;13.80;52.60
55466;BME280;41329;41.594;23.810;2023-03-23T08:52:08;95249.81;;;14.04;53.89
55466;BME280;41329;41.594;23.810;2023-03-23T08:54:35;95232.72;;;14.13;55.25
55466;BME280;41329;41.594;23.810;2023-03-23T08:57:01;95228.78;;;14.21;51.98
55466;BME280;41329;41.594;23.810;2023-03-23T08:59:28;95241.09;;;14.44;51.42
55466;BME280;41329;41.594;23.810;2023-03-23T09:01:54;95231.19;;;14.29;48.47
55466;BME280;41329;41.594;23.810;2023-03-23T09:04:19;95247.88;;;14.40;49.00
55466;BME280;41329;41.594;23.810;2023-03-23T09:06:46;95234.38;;;14.45;49.74
55466;BME280;41329;41.594;23.810;2023-03-23T09:09:12;95236.31;;;14.48;49.15
55466;BME280;41329;41.594;23.810;2023-03-23T09:11:38;95236.31;;;14.59;49.50
55466;BME280;41329;41.594;23.810;2023-03-23T09:14:06;95225.59;;;14.40;48.22
55466;BME280;41329;41.594;23.810;2023-03-23T09:16:32;95229.16;;;14.58;49.44
55466;BME280;41329;41.594;23.810;2023-03-23T09:18:58;95225.19;;;14.55;47.82
55466;BME280;41329;41.594;23.810;2023-03-23T09:21:24;95225.16;;;14.69;47.57
55466;BME280;41329;41.594;23.810;2023-03-23T09:23:51;95220.38;;;14.84;47.55
55466;BME280;41329;41.594;23.810;2023-03-23T09:26:17;95223.16;;;14.80;46.19
55466;BME280;41329;41.594;23.810;2023-03-23T09:28:42;95218.44;;;14.70;45.29
55466;BME280;41329;41.594;23.810;2023-03-23T09:31:09;95214.41;;;14.68;45.76
55466;BME280;41329;41.594;23.810;2023-03-23T09:33:36;95208.41;;;14.94;46.68
55466;BME280;41329;41.594;23.810;2023-03-23T09:36:02;95211.13;;;15.18;45.40
55466;BME280;41329;41.594;23.810;2023-03-23T09:38:28;95191.19;;;15.23;45.88
55466;BME280;41329;41.594;23.810;2023-03-23T09:41:08;95191.06;;;15.58;45.92
55466;BME280;41329;41.594;23.810;2023-03-23T09:49:16;95185.56;;;16.02;40.83
55466;BME280;41329;41.594;23.810;2023-03-23T09:51:44;95187.75;;;16.32;42.92
55466;BME280;41329;41.594;23.810;2023-03-23T09:56:44;95171.56;;;16.09;40.17
55466;BME280;41329;41.594;23.810;2023-03-23T10:01:51;95173.19;;;16.07;41.79
55466;BME280;41329;41.594;23.810;2023-03-23T10:04:37;95168.22;;;16.28;42.14
55466;BME280;41329;41.594;23.810;2023-03-23T10:07:12;95161.78;;;16.35;42.86
55466;BME280;41329;41.594;23.810;2023-03-23T10:09:39;95163.06;;;16.67;41.75
55466;BME280;41329;41.594;23.810;2023-03-23T10:12:19;95176.41;;;16.93;40.81
55466;BME280;41329;41.594;23.810;2023-03-23T10:17:39;95166.22;;;17.10;41.74
55466;BME280;41329;41.594;23.810;2023-03-23T10:25:19;95169.34;;;17.15;38.70
55466;BME280;41329;41.594;23.810;2023-03-23T10:27:58;95155.97;;;16.96;38.27
55466;BME280;41329;41.594;23.810;2023-03-23T10:30:51;95150.06;;;17.24;40.95
55466;BME280;41329;41.594;23.810;2023-03-23T10:33:24;95136.00;;;17.31;39.04
55466;BME280;41329;41.594;23.810;2023-03-23T10:36:01;95130.91;;;17.53;40.59
55466;BME280;41329;41.594;23.810;2023-03-23T10:38:38;95136.59;;;18.03;40.73
55466;BME280;41329;41.594;23.810;2023-03-23T10:41:14;95138.91;;;18.31;37.72
55466;BME280;41329;41.594;23.810;2023-03-23T10:43:41;95094.59;;;18.26;38.59
55466;BME280;41329;41.594;23.810;2023-03-23T10:48:54;95120.19;;;18.74;36.09
55466;BME280;41329;41.594;23.810;2023-03-23T10:51:24;95127.00;;;18.92;37.66
55466;BME280;41329;41.594;23.810;2023-03-23T10:53:57;95116.25;;;18.91;35.77
55466;BME280;41329;41.594;23.810;2023-03-23T10:56:29;95112.41;;;18.81;33.77
55466;BME280;41329;41.594;23.810;2023-03-23T10:58:59;95108.50;;;18.75;37.34
55466;BME280;41329;41.594;23.810;2023-03-23T11:01:33;95106.88;;;18.78;34.22
55466;BME280;41329;41.594;23.810;2023-03-23T11:04:00;95115.34;;;18.74;35.90
55466;BME280;41329;41.594;23.810;2023-03-23T11:06:29;95113.25;;;18.78;34.60
55466;BME280;41329;41.594;23.810;2023-03-23T11:09:01;95104.78;;;18.82;34.88
55466;BME280;41329;41.594;23.810;2023-03-23T11:11:30;95088.75;;;19.02;35.06
55466;BME280;41329;41.594;23.810;2023-03-23T11:14:13;95106.28;;;19.29;34.80
55466;BME280;41329;41.594;23.810;2023-03-23T11:16:45;95099.72;;;19.35;32.69
55466;BME280;41329;41.594;23.810;2023-03-23T11:19:14;95105.38;;;19.32;33.14
55466;BME280;41329;41.594;23.810;2023-03-23T11:21:40;95093.44;;;19.08;33.32
55466;BME280;41329;41.594;23.810;2023-03-23T11:24:11;95089.84;;;19.08;34.56
55466;BME280;41329;41.594;23.810;2023-03-23T11:26:37;95094.34;;;19.25;34.99
55466;BME280;41329;41.594;23.810;2023-03-23T11:29:08;95088.38;;;19.58;34.38
55466;BME280;41329;41.594;23.810;2023-03-23T11:31:39;95075.84;;;19.63;31.30
55466;BME280;41329;41.594;23.810;2023-03-23T11:34:31;95079.25;;;19.54;31.73
55466;BME280;41329;41.594;23.810;2023-03-23T11:37:02;95066.97;;;19.48;31.32
55466;BME280;41329;41.594;23.810;2023-03-23T11:39:31;95064.78;;;19.56;31.73
55466;BME280;41329;41.594;23.810;2023-03-23T11:42:11;95067.72;;;19.84;33.45
55466;BME280;41329;41.594;23.810;2023-03-23T11:44:42;95064.69;;;20.11;33.16
55466;BME280;41329;41.594;23.810;2023-03-23T11:47:32;95045.25;;;20.00;32.51
55466;BME280;41329;41.594;23.810;2023-03-23T11:52:41;95062.63;;;19.95;30.51
55466;BME280;41329;41.594;23.810;2023-03-23T11:55:19;95059.13;;;19.91;31.17
55466;BME280;41329;41.594;23.810;2023-03-23T11:57:46;95055.78;;;19.96;30.49
55466;BME280;41329;41.594;23.810;2023-03-23T12:00:16;95008.13;;;19.77;31.38
55466;BME280;41329;41.594;23.810;2023-03-23T12:05:57;95029.81;;;20.40;30.88
55466;BME280;41329;41.594;23.810;2023-03-23T12:08:43;95050.91;;;20.61;29.25
55466;BME280;41329;41.594;23.810;2023-03-23T12:19:12;95039.09;;;20.82;28.80
55466;BME280;41329;41.594;23.810;2023-03-23T12:25:08;95020.53;;;20.56;30.13
55466;BME280;41329;41.594;23.810;2023-03-23T12:27:40;95037.56;;;20.93;32.18
55466;BME280;41329;41.594;23.810;2023-03-23T12:30:32;95028.63;;;21.11;29.12
55466;BME280;41329;41.594;23.810;2023-03-23T12:43:38;95031.78;;;20.84;29.09
55466;BME280;41329;41.594;23.810;2023-03-23T12:49:09;95017.56;;;20.91;28.52
55466;BME280;41329;41.594;23.810;2023-03-23T12:51:51;95022.50;;;20.71;28.88
55466;BME280;41329;41.594;23.810;2023-03-23T12:57:16;95016.41;;;20.60;29.05
55466;BME280;41329;41.594;23.810;2023-03-23T13:00:04;95012.50;;;20.70;29.46
55466;BME280;41329;41.594;23.810;2023-03-23T13:07:58;95003.47;;;20.34;28.72
55466;BME280;41329;41.594;23.810;2023-03-23T13:10:49;94995.69;;;20.26;30.67
55466;BME280;41329;41.594;23.810;2023-03-23T13:13:22;94989.47;;;20.47;29.41
55466;BME280;41329;41.594;23.810;2023-03-23T13:16:11;95008.47;;;20.71;28.66
55466;BME280;41329;41.594;23.810;2023-03-23T13:24:04;94999.72;;;20.82;28.06
55466;BME280;41329;41.594;23.810;2023-03-23T13:26:31;94993.22;;;20.85;28.33
55466;BME280;41329;41.594;23.810;2023-03-23T13:29:00;94988.19;;;20.92;28.71
55466;BME280;41329;41.594;23.810;2023-03-23T13:31:34;94982.72;;;21.14;29.41
55466;BME280;41329;41.594;23.810;2023-03-23T13:34:04;94987.38;;;21.45;29.06
55466;BME280;41329;41.594;23.810;2023-03-23T13:36:35;94982.56;;;21.71;27.64
55466;BME280;41329;41.594;23.810;2023-03-23T13:39:04;94966.09;;;21.82;26.62
55466;BME280;41329;41.594;23.810;2023-03-23T13:41:33;94980.72;;;22.02;27.43
55466;BME280;41329;41.594;23.810;2023-03-23T13:44:16;94984.03;;;22.22;28.26
55466;BME280;41329;41.594;23.810;2023-03-23T13:46:54;94977.91;;;22.48;28.20
55466;BME280;41329;41.594;23.810;2023-03-23T13:49:21;94994.72;;;22.73;26.69
55466;BME280;41329;41.594;23.810;2023-03-23T13:51:57;94968.16;;;22.62;26.74
55466;BME280;41329;41.594;23.810;2023-03-23T13:54:30;94982.38;;;22.24;26.07
55466;BME280;41329;41.594;23.810;2023-03-23T13:57:01;94964.41;;;21.97;27.05
55466;BME280;41329;41.594;23.810;2023-03-23T14:01:53;94984.22;;;22.40;27.21
55466;BME280;41329;41.594;23.810;2023-03-23T14:04:21;94996.53;;;22.33;26.42
55466;BME280;41329;41.594;23.810;2023-03-23T14:06:49;94990.78;;;22.37;27.01
55466;BME280;41329;41.594;23.810;2023-03-23T14:12:04;94961.72;;;21.56;30.88
55466;BME280;41329;41.594;23.810;2023-03-23T14:14:43;94986.22;;;21.30;32.80
55466;BME280;41329;41.594;23.810;2023-03-23T14:17:40;94989.94;;;21.15;32.17
55466;BME280;41329;41.594;23.810;2023-03-23T14:20:06;94986.78;;;20.84;32.19
55466;BME280;41329;41.594;23.810;2023-03-23T14:22:35;94983.03;;;20.75;33.65
55466;BME280;41329;41.594;23.810;2023-03-23T14:25:15;94986.50;;;20.66;33.95
55466;BME280;41329;41.594;23.810;2023-03-23T14:27:42;94996.81;;;20.57;33.34
55466;BME280;41329;41.594;23.810;2023-03-23T14:30:14;94985.31;;;20.23;32.84
55466;BME280;41329;41.594;23.810;2023-03-23T14:32:40;94987.09;;;20.17;34.59